KLUM

Menomonie Municipal-Score Field Airport

Menomonie, Wisconsin, USA
METAR KLUM 191455Z AUTO 11004KT 10SM CLR M02/M05 A2963 RMK AO2 T10251052
Observed Flight Rules
Jan-19 @ 14:55 UTC (23 minutes ago) Visual Flight Rules
Wind Visibility Clouds
110° at 4 knots 10 miles
  • Clear skies
Temperatures Readings
Current -3°C / 27°F
Dewpoint -5°C / 23°F
Humidity 86%
Altimeter 29.63" Hg
Pressure 1003 hPa
Elevation 273
METAR KLUM 191455Z AUTO 11004KT 10SM CLR M02/M05 A2963 RMK AO2 T10251052
Observed Flight Rules
Jan-19 @ 14:55 UTC
(23 minutes ago)
VFR
Wind Visibility
110° at 4 knots 10 miles
Clouds
  • Clear skies
Temperature Dewpoint
-3°C / 27°F -5°C / 23°F
Humidity Altimeter Pressure
86% 29.63" Hg 1003 hPa